sensor_id;sensor_type;location;lat;lon;timestamp;P1;durP1;ratioP1;P2;durP2;ratioP2
75526;SDS011;64107;49.248;7.006;2022-11-18T00:01:44;5.85;;;2.72;;
75526;SDS011;64107;49.248;7.006;2022-11-18T00:04:10;9.13;;;3.03;;
75526;SDS011;64107;49.248;7.006;2022-11-18T00:06:37;9.77;;;3.35;;
75526;SDS011;64107;49.248;7.006;2022-11-18T00:09:03;9.00;;;3.58;;
75526;SDS011;64107;49.248;7.006;2022-11-18T00:11:29;7.25;;;3.22;;
75526;SDS011;64107;49.248;7.006;2022-11-18T00:14:21;7.85;;;3.03;;
75526;SDS011;64107;49.248;7.006;2022-11-18T00:16:55;9.23;;;3.25;;
75526;SDS011;64107;49.248;7.006;2022-11-18T00:19:32;7.47;;;3.42;;
75526;SDS011;64107;49.248;7.006;2022-11-18T00:22:03;7.53;;;3.13;;
75526;SDS011;64107;49.248;7.006;2022-11-18T00:24:30;9.15;;;3.35;;
75526;SDS011;64107;49.248;7.006;2022-11-18T00:26:56;7.03;;;3.17;;
75526;SDS011;64107;49.248;7.006;2022-11-18T00:29:23;9.50;;;3.38;;
75526;SDS011;64107;49.248;7.006;2022-11-18T00:31:53;10.82;;;4.55;;
75526;SDS011;64107;49.248;7.006;2022-11-18T00:34:19;12.60;;;4.55;;
75526;SDS011;64107;49.248;7.006;2022-11-18T00:36:46;8.63;;;3.97;;
75526;SDS011;64107;49.248;7.006;2022-11-18T00:39:13;10.90;;;5.70;;
75526;SDS011;64107;49.248;7.006;2022-11-18T00:41:40;10.23;;;3.55;;
75526;SDS011;64107;49.248;7.006;2022-11-18T00:44:25;15.77;;;6.43;;
75526;SDS011;64107;49.248;7.006;2022-11-18T00:46:51;11.02;;;5.22;;
75526;SDS011;64107;49.248;7.006;2022-11-18T00:49:17;15.40;;;6.60;;
75526;SDS011;64107;49.248;7.006;2022-11-18T00:51:43;13.10;;;2.92;;
75526;SDS011;64107;49.248;7.006;2022-11-18T00:54:09;7.43;;;2.95;;
75526;SDS011;64107;49.248;7.006;2022-11-18T00:56:36;7.35;;;3.35;;
75526;SDS011;64107;49.248;7.006;2022-11-18T00:59:02;11.38;;;2.75;;
75526;SDS011;64107;49.248;7.006;2022-11-18T01:01:28;10.75;;;3.30;;
75526;SDS011;64107;49.248;7.006;2022-11-18T01:03:54;5.22;;;3.17;;
75526;SDS011;64107;49.248;7.006;2022-11-18T01:06:20;12.43;;;3.40;;
75526;SDS011;64107;49.248;7.006;2022-11-18T01:08:47;7.97;;;3.33;;
75526;SDS011;64107;49.248;7.006;2022-11-18T01:11:13;9.25;;;3.50;;
75526;SDS011;64107;49.248;7.006;2022-11-18T01:13:58;11.80;;;3.08;;
75526;SDS011;64107;49.248;7.006;2022-11-18T01:16:24;16.33;;;6.82;;
75526;SDS011;64107;49.248;7.006;2022-11-18T01:18:52;9.02;;;3.45;;
75526;SDS011;64107;49.248;7.006;2022-11-18T01:21:18;5.93;;;2.67;;
75526;SDS011;64107;49.248;7.006;2022-11-18T01:23:44;4.40;;;3.05;;
75526;SDS011;64107;49.248;7.006;2022-11-18T01:26:11;8.88;;;2.95;;
75526;SDS011;64107;49.248;7.006;2022-11-18T01:28:38;5.97;;;2.97;;
75526;SDS011;64107;49.248;7.006;2022-11-18T01:31:05;4.50;;;2.60;;
75526;SDS011;64107;49.248;7.006;2022-11-18T01:33:35;7.97;;;4.07;;
75526;SDS011;64107;49.248;7.006;2022-11-18T01:36:01;8.20;;;2.70;;
75526;SDS011;64107;49.248;7.006;2022-11-18T01:38:28;8.27;;;3.30;;
75526;SDS011;64107;49.248;7.006;2022-11-18T01:40:55;5.55;;;3.17;;
75526;SDS011;64107;49.248;7.006;2022-11-18T01:43:21;7.13;;;4.25;;
75526;SDS011;64107;49.248;7.006;2022-11-18T01:45:49;5.78;;;3.15;;
75526;SDS011;64107;49.248;7.006;2022-11-18T01:48:25;7.18;;;2.70;;
75526;SDS011;64107;49.248;7.006;2022-11-18T01:50:57;2.80;;;1.77;;
75526;SDS011;64107;49.248;7.006;2022-11-18T01:53:49;3.78;;;1.73;;
75526;SDS011;64107;49.248;7.006;2022-11-18T01:56:20;2.15;;;1.60;;
75526;SDS011;64107;49.248;7.006;2022-11-18T01:58:56;3.05;;;1.30;;
75526;SDS011;64107;49.248;7.006;2022-11-18T02:01:25;2.25;;;1.17;;
75526;SDS011;64107;49.248;7.006;2022-11-18T02:03:51;3.58;;;1.10;;
75526;SDS011;64107;49.248;7.006;2022-11-18T02:06:18;2.63;;;0.70;;
75526;SDS011;64107;49.248;7.006;2022-11-18T02:08:45;1.08;;;0.77;;
75526;SDS011;64107;49.248;7.006;2022-11-18T02:11:12;1.23;;;0.77;;
75526;SDS011;64107;49.248;7.006;2022-11-18T02:14:00;1.30;;;0.80;;
75526;SDS011;64107;49.248;7.006;2022-11-18T02:19:25;1.67;;;0.50;;
75526;SDS011;64107;49.248;7.006;2022-11-18T02:30:19;1.50;;;0.60;;
75526;SDS011;64107;49.248;7.006;2022-11-18T02:33:03;1.48;;;0.38;;
75526;SDS011;64107;49.248;7.006;2022-11-18T02:35:43;0.95;;;0.55;;
75526;SDS011;64107;49.248;7.006;2022-11-18T02:38:45;0.95;;;0.40;;
75526;SDS011;64107;49.248;7.006;2022-11-18T02:41:11;0.50;;;0.32;;
75526;SDS011;64107;49.248;7.006;2022-11-18T02:43:46;0.30;;;0.20;;
75526;SDS011;64107;49.248;7.006;2022-11-18T02:46:30;0.40;;;0.20;;
75526;SDS011;64107;49.248;7.006;2022-11-18T02:48:58;1.42;;;0.52;;
75526;SDS011;64107;49.248;7.006;2022-11-18T02:51:28;0.60;;;0.28;;
75526;SDS011;64107;49.248;7.006;2022-11-18T02:53:58;1.75;;;0.30;;
75526;SDS011;64107;49.248;7.006;2022-11-18T02:56:27;0.40;;;0.30;;
75526;SDS011;64107;49.248;7.006;2022-11-18T02:58:54;1.00;;;0.20;;
75526;SDS011;64107;49.248;7.006;2022-11-18T03:01:21;0.20;;;0.20;;
75526;SDS011;64107;49.248;7.006;2022-11-18T03:03:51;0.10;;;0.10;;
75526;SDS011;64107;49.248;7.006;2022-11-18T03:06:38;0.25;;;0.10;;
75526;SDS011;64107;49.248;7.006;2022-11-18T03:09:16;2.78;;;0.80;;
75526;SDS011;64107;49.248;7.006;2022-11-18T03:15:17;1.95;;;0.20;;
75526;SDS011;64107;49.248;7.006;2022-11-18T03:20:50;1.25;;;0.30;;
75526;SDS011;64107;49.248;7.006;2022-11-18T03:23:31;2.15;;;0.60;;
75526;SDS011;64107;49.248;7.006;2022-11-18T03:26:11;1.15;;;0.32;;
75526;SDS011;64107;49.248;7.006;2022-11-18T03:31:41;0.65;;;0.30;;
75526;SDS011;64107;49.248;7.006;2022-11-18T03:34:41;2.88;;;0.40;;
75526;SDS011;64107;49.248;7.006;2022-11-18T03:37:13;0.52;;;0.32;;
75526;SDS011;64107;49.248;7.006;2022-11-18T03:39:41;1.15;;;0.35;;
75526;SDS011;64107;49.248;7.006;2022-11-18T03:42:14;1.02;;;0.32;;
75526;SDS011;64107;49.248;7.006;2022-11-18T03:44:51;1.38;;;0.40;;
75526;SDS011;64107;49.248;7.006;2022-11-18T03:47:20;1.10;;;0.30;;
75526;SDS011;64107;49.248;7.006;2022-11-18T03:49:58;0.88;;;0.20;;
75526;SDS011;64107;49.248;7.006;2022-11-18T03:52:34;0.68;;;0.43;;
75526;SDS011;64107;49.248;7.006;2022-11-18T03:55:03;1.77;;;0.80;;
75526;SDS011;64107;49.248;7.006;2022-11-18T03:57:37;1.35;;;0.30;;
75526;SDS011;64107;49.248;7.006;2022-11-18T04:00:11;1.00;;;0.47;;
75526;SDS011;64107;49.248;7.006;2022-11-18T04:02:38;1.45;;;0.28;;
75526;SDS011;64107;49.248;7.006;2022-11-18T04:05:05;0.88;;;0.47;;
75526;SDS011;64107;49.248;7.006;2022-11-18T04:07:36;3.45;;;0.70;;
75526;SDS011;64107;49.248;7.006;2022-11-18T04:10:17;2.38;;;0.68;;
75526;SDS011;64107;49.248;7.006;2022-11-18T04:13:01;1.83;;;0.28;;
75526;SDS011;64107;49.248;7.006;2022-11-18T04:15:30;1.52;;;0.63;;
75526;SDS011;64107;49.248;7.006;2022-11-18T04:17:57;2.15;;;0.70;;
75526;SDS011;64107;49.248;7.006;2022-11-18T04:20:23;1.33;;;0.68;;
75526;SDS011;64107;49.248;7.006;2022-11-18T04:22:50;2.15;;;0.75;;
75526;SDS011;64107;49.248;7.006;2022-11-18T04:25:16;1.05;;;0.60;;
75526;SDS011;64107;49.248;7.006;2022-11-18T04:27:42;2.75;;;1.20;;
75526;SDS011;64107;49.248;7.006;2022-11-18T04:30:08;2.33;;;0.73;;
75526;SDS011;64107;49.248;7.006;2022-11-18T04:32:34;3.15;;;0.60;;
75526;SDS011;64107;49.248;7.006;2022-11-18T04:35:01;1.25;;;0.65;;
75526;SDS011;64107;49.248;7.006;2022-11-18T04:37:27;3.10;;;1.25;;
75526;SDS011;64107;49.248;7.006;2022-11-18T04:39:53;3.65;;;1.08;;
75526;SDS011;64107;49.248;7.006;2022-11-18T04:42:22;3.75;;;0.90;;
75526;SDS011;64107;49.248;7.006;2022-11-18T04:44:48;3.65;;;1.63;;
75526;SDS011;64107;49.248;7.006;2022-11-18T04:49:40;1.67;;;0.70;;
75526;SDS011;64107;49.248;7.006;2022-11-18T04:52:06;1.85;;;1.00;;
75526;SDS011;64107;49.248;7.006;2022-11-18T04:54:32;3.22;;;1.00;;
75526;SDS011;64107;49.248;7.006;2022-11-18T04:56:58;3.35;;;1.25;;
75526;SDS011;64107;49.248;7.006;2022-11-18T04:59:25;1.92;;;1.20;;
75526;SDS011;64107;49.248;7.006;2022-11-18T05:01:52;2.00;;;0.55;;
75526;SDS011;64107;49.248;7.006;2022-11-18T05:04:20;1.80;;;1.02;;
75526;SDS011;64107;49.248;7.006;2022-11-18T05:06:50;3.67;;;1.30;;
75526;SDS011;64107;49.248;7.006;2022-11-18T05:09:17;5.80;;;1.33;;
75526;SDS011;64107;49.248;7.006;2022-11-18T05:11:43;4.93;;;1.63;;
75526;SDS011;64107;49.248;7.006;2022-11-18T05:14:28;2.47;;;1.67;;
75526;SDS011;64107;49.248;7.006;2022-11-18T05:16:55;3.85;;;2.13;;
75526;SDS011;64107;49.248;7.006;2022-11-18T05:19:23;4.88;;;2.08;;
75526;SDS011;64107;49.248;7.006;2022-11-18T05:21:49;3.50;;;1.63;;
75526;SDS011;64107;49.248;7.006;2022-11-18T05:24:15;3.63;;;2.15;;
75526;SDS011;64107;49.248;7.006;2022-11-18T05:26:41;2.25;;;1.63;;
75526;SDS011;64107;49.248;7.006;2022-11-18T05:29:07;4.22;;;1.92;;
75526;SDS011;64107;49.248;7.006;2022-11-18T05:31:34;3.15;;;1.85;;
75526;SDS011;64107;49.248;7.006;2022-11-18T05:34:00;5.75;;;2.72;;
75526;SDS011;64107;49.248;7.006;2022-11-18T05:36:26;4.38;;;2.78;;
75526;SDS011;64107;49.248;7.006;2022-11-18T05:38:52;3.55;;;2.22;;
75526;SDS011;64107;49.248;7.006;2022-11-18T05:41:18;3.88;;;2.40;;
75526;SDS011;64107;49.248;7.006;2022-11-18T05:44:03;7.00;;;2.25;;
75526;SDS011;64107;49.248;7.006;2022-11-18T05:46:30;4.95;;;2.65;;
75526;SDS011;64107;49.248;7.006;2022-11-18T05:48:56;6.45;;;2.80;;
75526;SDS011;64107;49.248;7.006;2022-11-18T05:51:22;3.97;;;2.50;;
75526;SDS011;64107;49.248;7.006;2022-11-18T05:53:49;4.72;;;2.83;;
75526;SDS011;64107;49.248;7.006;2022-11-18T05:56:20;4.82;;;2.85;;
75526;SDS011;64107;49.248;7.006;2022-11-18T05:58:54;4.43;;;2.50;;
75526;SDS011;64107;49.248;7.006;2022-11-18T06:01:25;5.50;;;2.78;;
75526;SDS011;64107;49.248;7.006;2022-11-18T06:06:59;3.47;;;2.50;;
75526;SDS011;64107;49.248;7.006;2022-11-18T06:09:30;5.45;;;2.58;;
75526;SDS011;64107;49.248;7.006;2022-11-18T06:11:58;4.78;;;1.95;;
75526;SDS011;64107;49.248;7.006;2022-11-18T06:14:26;4.57;;;2.88;;
75526;SDS011;64107;49.248;7.006;2022-11-18T06:17:03;4.22;;;2.50;;
75526;SDS011;64107;49.248;7.006;2022-11-18T06:19:32;6.32;;;1.90;;
75526;SDS011;64107;49.248;7.006;2022-11-18T06:21:59;3.75;;;1.90;;
75526;SDS011;64107;49.248;7.006;2022-11-18T06:24:26;3.65;;;1.92;;
75526;SDS011;64107;49.248;7.006;2022-11-18T06:26:52;4.80;;;1.75;;
75526;SDS011;64107;49.248;7.006;2022-11-18T06:29:18;4.03;;;2.00;;
75526;SDS011;64107;49.248;7.006;2022-11-18T06:31:45;7.28;;;2.20;;
75526;SDS011;64107;49.248;7.006;2022-11-18T06:34:11;1.85;;;1.08;;
75526;SDS011;64107;49.248;7.006;2022-11-18T06:36:37;5.70;;;2.58;;
75526;SDS011;64107;49.248;7.006;2022-11-18T06:39:04;5.05;;;2.00;;
75526;SDS011;64107;49.248;7.006;2022-11-18T06:41:30;5.70;;;2.30;;
75526;SDS011;64107;49.248;7.006;2022-11-18T06:43:57;2.97;;;1.92;;
75526;SDS011;64107;49.248;7.006;2022-11-18T06:46:23;6.40;;;2.13;;
75526;SDS011;64107;49.248;7.006;2022-11-18T06:49:08;8.23;;;1.90;;
75526;SDS011;64107;49.248;7.006;2022-11-18T06:51:34;1.80;;;1.15;;
75526;SDS011;64107;49.248;7.006;2022-11-18T06:54:00;5.60;;;1.67;;
75526;SDS011;64107;49.248;7.006;2022-11-18T06:56:26;5.53;;;1.70;;
75526;SDS011;64107;49.248;7.006;2022-11-18T06:58:53;0.60;;;0.50;;
75526;SDS011;64107;49.248;7.006;2022-11-18T07:01:23;2.22;;;1.88;;
75526;SDS011;64107;49.248;7.006;2022-11-18T07:03:51;3.97;;;2.33;;
75526;SDS011;64107;49.248;7.006;2022-11-18T07:06:18;3.58;;;1.17;;
75526;SDS011;64107;49.248;7.006;2022-11-18T07:08:46;4.70;;;1.55;;
75526;SDS011;64107;49.248;7.006;2022-11-18T07:11:13;3.72;;;1.90;;
75526;SDS011;64107;49.248;7.006;2022-11-18T07:13:41;2.95;;;1.90;;
75526;SDS011;64107;49.248;7.006;2022-11-18T07:16:09;6.93;;;2.42;;
75526;SDS011;64107;49.248;7.006;2022-11-18T07:18:40;8.80;;;2.88;;
75526;SDS011;64107;49.248;7.006;2022-11-18T07:21:08;4.32;;;1.95;;
75526;SDS011;64107;49.248;7.006;2022-11-18T07:23:36;2.67;;;1.92;;
75526;SDS011;64107;49.248;7.006;2022-11-18T07:26:02;6.57;;;2.03;;
75526;SDS011;64107;49.248;7.006;2022-11-18T07:28:29;3.53;;;1.80;;
75526;SDS011;64107;49.248;7.006;2022-11-18T07:31:11;3.85;;;1.90;;
75526;SDS011;64107;49.248;7.006;2022-11-18T07:33:39;2.45;;;1.92;;
75526;SDS011;64107;49.248;7.006;2022-11-18T07:36:07;3.45;;;1.90;;
75526;SDS011;64107;49.248;7.006;2022-11-18T07:38:34;4.40;;;2.22;;
75526;SDS011;64107;49.248;7.006;2022-11-18T07:41:05;4.05;;;2.42;;
75526;SDS011;64107;49.248;7.006;2022-11-18T07:43:33;3.05;;;1.23;;
75526;SDS011;64107;49.248;7.006;2022-11-18T07:46:16;1.90;;;1.23;;
75526;SDS011;64107;49.248;7.006;2022-11-18T07:48:44;4.97;;;1.20;;
75526;SDS011;64107;49.248;7.006;2022-11-18T07:51:11;3.13;;;1.23;;
75526;SDS011;64107;49.248;7.006;2022-11-18T07:53:38;3.25;;;1.75;;
75526;SDS011;64107;49.248;7.006;2022-11-18T07:56:04;3.05;;;1.50;;
75526;SDS011;64107;49.248;7.006;2022-11-18T07:58:31;3.65;;;1.58;;
75526;SDS011;64107;49.248;7.006;2022-11-18T08:00:58;5.47;;;1.52;;
75526;SDS011;64107;49.248;7.006;2022-11-18T08:03:30;2.80;;;1.15;;
75526;SDS011;64107;49.248;7.006;2022-11-18T08:05:59;1.92;;;1.23;;
75526;SDS011;64107;49.248;7.006;2022-11-18T08:08:26;2.28;;;1.02;;
75526;SDS011;64107;49.248;7.006;2022-11-18T08:10:55;4.32;;;1.60;;
75526;SDS011;64107;49.248;7.006;2022-11-18T08:13:22;1.70;;;1.50;;
75526;SDS011;64107;49.248;7.006;2022-11-18T08:15:49;3.65;;;1.38;;
75526;SDS011;64107;49.248;7.006;2022-11-18T08:18:15;3.33;;;1.60;;
75526;SDS011;64107;49.248;7.006;2022-11-18T08:20:41;2.13;;;0.93;;
75526;SDS011;64107;49.248;7.006;2022-11-18T08:23:09;2.45;;;1.50;;
75526;SDS011;64107;49.248;7.006;2022-11-18T08:25:35;1.85;;;0.80;;
75526;SDS011;64107;49.248;7.006;2022-11-18T08:28:01;3.13;;;1.10;;
75526;SDS011;64107;49.248;7.006;2022-11-18T08:30:27;4.35;;;1.40;;
75526;SDS011;64107;49.248;7.006;2022-11-18T08:32:53;2.03;;;1.17;;
75526;SDS011;64107;49.248;7.006;2022-11-18T08:35:20;3.10;;;1.30;;
75526;SDS011;64107;49.248;7.006;2022-11-18T08:37:46;4.35;;;1.20;;
75526;SDS011;64107;49.248;7.006;2022-11-18T08:40:12;1.50;;;0.60;;
75526;SDS011;64107;49.248;7.006;2022-11-18T08:42:38;5.07;;;1.40;;
75526;SDS011;64107;49.248;7.006;2022-11-18T08:45:04;0.73;;;0.73;;
75526;SDS011;64107;49.248;7.006;2022-11-18T08:47:34;2.75;;;1.35;;
75526;SDS011;64107;49.248;7.006;2022-11-18T08:50:01;2.55;;;1.35;;
75526;SDS011;64107;49.248;7.006;2022-11-18T08:52:31;3.80;;;1.40;;
75526;SDS011;64107;49.248;7.006;2022-11-18T08:54:58;3.25;;;1.65;;
75526;SDS011;64107;49.248;7.006;2022-11-18T08:57:24;1.70;;;0.82;;
75526;SDS011;64107;49.248;7.006;2022-11-18T08:59:50;4.50;;;1.70;;
75526;SDS011;64107;49.248;7.006;2022-11-18T09:02:17;5.95;;;1.35;;
75526;SDS011;64107;49.248;7.006;2022-11-18T09:04:48;1.95;;;1.00;;
75526;SDS011;64107;49.248;7.006;2022-11-18T09:07:15;5.43;;;1.20;;
75526;SDS011;64107;49.248;7.006;2022-11-18T09:09:41;3.20;;;1.08;;
75526;SDS011;64107;49.248;7.006;2022-11-18T09:12:07;3.05;;;1.23;;
75526;SDS011;64107;49.248;7.006;2022-11-18T09:14:34;1.65;;;0.80;;
75526;SDS011;64107;49.248;7.006;2022-11-18T09:17:00;2.45;;;0.98;;
75526;SDS011;64107;49.248;7.006;2022-11-18T09:19:26;2.83;;;1.23;;
75526;SDS011;64107;49.248;7.006;2022-11-18T09:21:52;2.55;;;0.73;;
75526;SDS011;64107;49.248;7.006;2022-11-18T09:24:18;4.63;;;1.00;;
75526;SDS011;64107;49.248;7.006;2022-11-18T09:26:45;2.15;;;0.75;;
75526;SDS011;64107;49.248;7.006;2022-11-18T09:29:12;1.50;;;0.90;;
75526;SDS011;64107;49.248;7.006;2022-11-18T09:31:38;1.08;;;0.68;;
75526;SDS011;64107;49.248;7.006;2022-11-18T09:34:04;3.83;;;0.90;;
75526;SDS011;64107;49.248;7.006;2022-11-18T09:36:30;3.60;;;1.27;;
75526;SDS011;64107;49.248;7.006;2022-11-18T09:38:57;1.58;;;0.70;;
75526;SDS011;64107;49.248;7.006;2022-11-18T09:47:21;5.80;;;1.08;;
75526;SDS011;64107;49.248;7.006;2022-11-18T09:49:51;4.63;;;1.17;;
75526;SDS011;64107;49.248;7.006;2022-11-18T09:52:25;1.00;;;0.68;;
75526;SDS011;64107;49.248;7.006;2022-11-18T09:54:52;3.33;;;0.75;;
75526;SDS011;64107;49.248;7.006;2022-11-18T09:57:29;1.80;;;0.85;;
75526;SDS011;64107;49.248;7.006;2022-11-18T09:59:59;5.38;;;0.98;;
75526;SDS011;64107;49.248;7.006;2022-11-18T10:02:46;1.90;;;0.90;;
75526;SDS011;64107;49.248;7.006;2022-11-18T10:05:20;1.65;;;0.70;;
75526;SDS011;64107;49.248;7.006;2022-11-18T10:10:47;3.10;;;1.23;;
75526;SDS011;64107;49.248;7.006;2022-11-18T10:15:46;6.57;;;1.63;;
75526;SDS011;64107;49.248;7.006;2022-11-18T10:18:29;4.93;;;1.15;;
75526;SDS011;64107;49.248;7.006;2022-11-18T10:23:30;3.80;;;1.13;;
75526;SDS011;64107;49.248;7.006;2022-11-18T10:26:11;3.95;;;1.27;;
75526;SDS011;64107;49.248;7.006;2022-11-18T10:28:37;6.95;;;0.88;;
75526;SDS011;64107;49.248;7.006;2022-11-18T10:31:08;2.55;;;1.25;;
75526;SDS011;64107;49.248;7.006;2022-11-18T10:33:35;3.40;;;1.05;;
75526;SDS011;64107;49.248;7.006;2022-11-18T10:36:09;3.70;;;0.70;;
75526;SDS011;64107;49.248;7.006;2022-11-18T10:38:43;1.63;;;0.73;;
75526;SDS011;64107;49.248;7.006;2022-11-18T10:41:11;4.97;;;1.13;;
75526;SDS011;64107;49.248;7.006;2022-11-18T10:43:43;0.65;;;0.32;;
75526;SDS011;64107;49.248;7.006;2022-11-18T10:46:17;3.92;;;1.05;;
75526;SDS011;64107;49.248;7.006;2022-11-18T10:49:04;3.13;;;0.95;;
75526;SDS011;64107;49.248;7.006;2022-11-18T10:52:16;4.50;;;0.52;;
75526;SDS011;64107;49.248;7.006;2022-11-18T10:54:29;8.82;;;1.05;;
75526;SDS011;64107;49.248;7.006;2022-11-18T10:56:56;5.10;;;1.00;;
75526;SDS011;64107;49.248;7.006;2022-11-18T10:59:45;2.38;;;1.02;;
75526;SDS011;64107;49.248;7.006;2022-11-18T11:02:16;1.70;;;0.60;;
75526;SDS011;64107;49.248;7.006;2022-11-18T11:05:14;2.80;;;0.82;;
75526;SDS011;64107;49.248;7.006;2022-11-18T11:07:45;2.45;;;0.93;;
75526;SDS011;64107;49.248;7.006;2022-11-18T11:10:27;3.40;;;0.70;;
75526;SDS011;64107;49.248;7.006;2022-11-18T11:13:00;9.07;;;1.08;;
75526;SDS011;64107;49.248;7.006;2022-11-18T11:15:34;3.30;;;0.57;;
75526;SDS011;64107;49.248;7.006;2022-11-18T11:18:09;5.30;;;1.10;;
75526;SDS011;64107;49.248;7.006;2022-11-18T11:21:00;6.07;;;1.02;;
75526;SDS011;64107;49.248;7.006;2022-11-18T11:23:27;1.80;;;0.82;;
75526;SDS011;64107;49.248;7.006;2022-11-18T11:25:58;2.72;;;1.20;;
75526;SDS011;64107;49.248;7.006;2022-11-18T11:28:28;2.80;;;1.00;;
75526;SDS011;64107;49.248;7.006;2022-11-18T11:34:10;5.05;;;0.88;;
75526;SDS011;64107;49.248;7.006;2022-11-18T11:39:36;8.95;;;0.90;;
75526;SDS011;64107;49.248;7.006;2022-11-18T11:44:58;5.88;;;1.30;;
75526;SDS011;64107;49.248;7.006;2022-11-18T11:50:32;1.13;;;0.50;;
75526;SDS011;64107;49.248;7.006;2022-11-18T11:56:20;4.57;;;1.08;;
75526;SDS011;64107;49.248;7.006;2022-11-18T11:59:27;2.80;;;0.70;;
75526;SDS011;64107;49.248;7.006;2022-11-18T12:07:51;2.30;;;0.80;;
75526;SDS011;64107;49.248;7.006;2022-11-18T12:10:36;7.07;;;0.95;;
75526;SDS011;64107;49.248;7.006;2022-11-18T12:22:05;2.78;;;0.60;;
75526;SDS011;64107;49.248;7.006;2022-11-18T12:27:14;3.15;;;1.10;;
75526;SDS011;64107;49.248;7.006;2022-11-18T12:30:03;3.13;;;1.10;;
75526;SDS011;64107;49.248;7.006;2022-11-18T12:32:41;3.15;;;0.80;;
75526;SDS011;64107;49.248;7.006;2022-11-18T12:37:37;2.95;;;1.02;;
75526;SDS011;64107;49.248;7.006;2022-11-18T12:43:03;2.35;;;0.60;;
75526;SDS011;64107;49.248;7.006;2022-11-18T12:45:55;2.13;;;0.70;;
75526;SDS011;64107;49.248;7.006;2022-11-18T12:51:10;2.00;;;0.73;;
75526;SDS011;64107;49.248;7.006;2022-11-18T12:53:50;7.18;;;1.10;;
75526;SDS011;64107;49.248;7.006;2022-11-18T12:58:44;3.70;;;0.82;;
75526;SDS011;64107;49.248;7.006;2022-11-18T13:01:15;3.60;;;0.60;;
75526;SDS011;64107;49.248;7.006;2022-11-18T13:03:43;3.80;;;0.90;;
75526;SDS011;64107;49.248;7.006;2022-11-18T13:06:31;2.75;;;0.88;;
75526;SDS011;64107;49.248;7.006;2022-11-18T13:09:00;4.05;;;0.88;;
75526;SDS011;64107;49.248;7.006;2022-11-18T13:11:28;4.10;;;1.38;;
75526;SDS011;64107;49.248;7.006;2022-11-18T13:14:12;4.10;;;1.20;;
75526;SDS011;64107;49.248;7.006;2022-11-18T13:22:56;1.77;;;0.80;;
75526;SDS011;64107;49.248;7.006;2022-11-18T13:26:03;3.50;;;1.10;;
75526;SDS011;64107;49.248;7.006;2022-11-18T13:31:22;1.17;;;1.00;;
75526;SDS011;64107;49.248;7.006;2022-11-18T13:33:54;5.85;;;1.55;;
75526;SDS011;64107;49.248;7.006;2022-11-18T13:36:31;2.42;;;1.10;;
75526;SDS011;64107;49.248;7.006;2022-11-18T13:39:02;2.13;;;0.77;;
75526;SDS011;64107;49.248;7.006;2022-11-18T13:41:30;7.53;;;1.92;;
75526;SDS011;64107;49.248;7.006;2022-11-18T13:44:16;1.65;;;0.70;;
75526;SDS011;64107;49.248;7.006;2022-11-18T13:46:45;1.95;;;0.95;;
75526;SDS011;64107;49.248;7.006;2022-11-18T13:49:14;3.53;;;1.08;;
75526;SDS011;64107;49.248;7.006;2022-11-18T13:51:44;2.47;;;0.80;;
75526;SDS011;64107;49.248;7.006;2022-11-18T13:54:12;3.05;;;0.95;;
75526;SDS011;64107;49.248;7.006;2022-11-18T13:56:43;1.67;;;0.63;;
75526;SDS011;64107;49.248;7.006;2022-11-18T13:59:13;2.70;;;0.90;;
75526;SDS011;64107;49.248;7.006;2022-11-18T14:01:42;1.60;;;0.57;;
75526;SDS011;64107;49.248;7.006;2022-11-18T14:04:17;0.80;;;0.50;;
75526;SDS011;64107;49.248;7.006;2022-11-18T14:06:47;1.98;;;0.68;;
75526;SDS011;64107;49.248;7.006;2022-11-18T14:12:00;1.70;;;1.23;;
75526;SDS011;64107;49.248;7.006;2022-11-18T14:14:36;0.95;;;0.50;;
75526;SDS011;64107;49.248;7.006;2022-11-18T14:24:55;2.03;;;0.90;;
75526;SDS011;64107;49.248;7.006;2022-11-18T14:30:22;4.25;;;0.73;;
75526;SDS011;64107;49.248;7.006;2022-11-18T14:35:41;3.17;;;1.77;;
75526;SDS011;64107;49.248;7.006;2022-11-18T14:38:51;1.85;;;1.00;;
75526;SDS011;64107;49.248;7.006;2022-11-18T14:40:59;2.45;;;1.05;;
75526;SDS011;64107;49.248;7.006;2022-11-18T14:43:27;5.28;;;2.30;;
75526;SDS011;64107;49.248;7.006;2022-11-18T14:45:57;10.82;;;2.88;;
75526;SDS011;64107;49.248;7.006;2022-11-18T14:48:25;5.47;;;2.67;;
75526;SDS011;64107;49.248;7.006;2022-11-18T14:50:52;4.93;;;1.33;;
75526;SDS011;64107;49.248;7.006;2022-11-18T14:53:18;6.85;;;2.97;;
75526;SDS011;64107;49.248;7.006;2022-11-18T14:55:44;5.03;;;2.00;;
75526;SDS011;64107;49.248;7.006;2022-11-18T14:58:13;1.27;;;0.65;;
75526;SDS011;64107;49.248;7.006;2022-11-18T15:00:40;3.63;;;1.33;;
75526;SDS011;64107;49.248;7.006;2022-11-18T15:03:07;6.88;;;2.55;;
75526;SDS011;64107;49.248;7.006;2022-11-18T15:05:33;5.68;;;1.83;;
75526;SDS011;64107;49.248;7.006;2022-11-18T15:07:59;4.50;;;1.95;;
75526;SDS011;64107;49.248;7.006;2022-11-18T15:10:25;3.92;;;1.85;;
75526;SDS011;64107;49.248;7.006;2022-11-18T15:12:51;3.70;;;1.77;;
75526;SDS011;64107;49.248;7.006;2022-11-18T15:15:17;2.88;;;1.50;;
75526;SDS011;64107;49.248;7.006;2022-11-18T15:17:44;4.18;;;1.42;;
75526;SDS011;64107;49.248;7.006;2022-11-18T15:20:13;0.45;;;0.45;;
75526;SDS011;64107;49.248;7.006;2022-11-18T15:22:41;2.72;;;1.08;;
75526;SDS011;64107;49.248;7.006;2022-11-18T15:25:07;6.55;;;1.20;;
75526;SDS011;64107;49.248;7.006;2022-11-18T15:27:34;2.78;;;0.98;;
75526;SDS011;64107;49.248;7.006;2022-11-18T15:30:00;1.27;;;0.63;;
75526;SDS011;64107;49.248;7.006;2022-11-18T15:32:26;3.47;;;0.85;;
75526;SDS011;64107;49.248;7.006;2022-11-18T15:34:52;0.93;;;0.52;;
75526;SDS011;64107;49.248;7.006;2022-11-18T15:37:18;2.97;;;1.08;;
75526;SDS011;64107;49.248;7.006;2022-11-18T15:39:44;2.97;;;1.42;;
75526;SDS011;64107;49.248;7.006;2022-11-18T15:42:14;3.85;;;1.30;;
75526;SDS011;64107;49.248;7.006;2022-11-18T15:44:41;5.15;;;1.20;;
75526;SDS011;64107;49.248;7.006;2022-11-18T15:47:08;3.05;;;1.20;;
75526;SDS011;64107;49.248;7.006;2022-11-18T15:49:34;5.82;;;1.42;;
75526;SDS011;64107;49.248;7.006;2022-11-18T15:52:00;4.68;;;1.23;;
75526;SDS011;64107;49.248;7.006;2022-11-18T15:54:26;4.18;;;1.27;;
75526;SDS011;64107;49.248;7.006;2022-11-18T15:56:52;3.97;;;1.60;;
75526;SDS011;64107;49.248;7.006;2022-11-18T15:59:18;12.88;;;3.92;;
75526;SDS011;64107;49.248;7.006;2022-11-18T16:01:45;3.78;;;1.52;;
75526;SDS011;64107;49.248;7.006;2022-11-18T16:04:13;4.55;;;1.63;;
75526;SDS011;64107;49.248;7.006;2022-11-18T16:06:41;7.95;;;1.52;;
75526;SDS011;64107;49.248;7.006;2022-11-18T16:09:07;5.07;;;1.35;;
75526;SDS011;64107;49.248;7.006;2022-11-18T16:11:33;5.63;;;1.13;;
75526;SDS011;64107;49.248;7.006;2022-11-18T16:14:19;1.15;;;0.55;;
75526;SDS011;64107;49.248;7.006;2022-11-18T16:16:46;1.52;;;1.15;;
75526;SDS011;64107;49.248;7.006;2022-11-18T16:19:14;3.70;;;1.10;;
75526;SDS011;64107;49.248;7.006;2022-11-18T16:21:43;2.55;;;1.10;;
75526;SDS011;64107;49.248;7.006;2022-11-18T16:24:12;4.18;;;1.58;;
75526;SDS011;64107;49.248;7.006;2022-11-18T16:26:43;2.92;;;0.80;;
75526;SDS011;64107;49.248;7.006;2022-11-18T16:29:10;3.88;;;0.80;;
75526;SDS011;64107;49.248;7.006;2022-11-18T16:31:36;4.90;;;1.58;;
75526;SDS011;64107;49.248;7.006;2022-11-18T16:34:14;1.95;;;1.08;;
75526;SDS011;64107;49.248;7.006;2022-11-18T16:36:46;6.53;;;1.50;;
75526;SDS011;64107;49.248;7.006;2022-11-18T16:39:14;3.00;;;1.15;;
75526;SDS011;64107;49.248;7.006;2022-11-18T16:41:42;10.70;;;2.05;;
75526;SDS011;64107;49.248;7.006;2022-11-18T16:44:12;2.90;;;1.20;;
75526;SDS011;64107;49.248;7.006;2022-11-18T16:46:40;4.40;;;1.27;;
75526;SDS011;64107;49.248;7.006;2022-11-18T16:49:10;3.38;;;0.75;;
75526;SDS011;64107;49.248;7.006;2022-11-18T16:51:37;2.55;;;1.20;;
75526;SDS011;64107;49.248;7.006;2022-11-18T16:54:08;5.05;;;1.20;;
75526;SDS011;64107;49.248;7.006;2022-11-18T16:56:42;5.70;;;1.40;;